createdAt,value
2022-11-06T00:00:41.885Z,51.259708
2022-11-06T00:01:41.974Z,51.259899
2022-11-06T00:02:41.957Z,51.259792
2022-11-06T00:03:41.847Z,51.259708
2022-11-06T00:04:41.851Z,51.259621
2022-11-06T00:05:41.832Z,51.259583
2022-11-06T00:06:41.864Z,51.259567
2022-11-06T00:07:41.805Z,51.259544
2022-11-06T00:08:41.794Z,51.259499
2022-11-06T00:09:41.792Z,51.259384
2022-11-06T00:10:41.762Z,51.259346
2022-11-06T00:11:41.784Z,51.259266
2022-11-06T00:12:41.749Z,51.259335
2022-11-06T00:13:41.752Z,51.259445
2022-11-06T00:14:41.732Z,51.259609
2022-11-06T00:15:41.773Z,51.259884
2022-11-06T00:16:41.730Z,51.259800
2022-11-06T00:17:41.696Z,51.259731
2022-11-06T00:18:41.679Z,51.259659
2022-11-06T00:19:41.673Z,51.259495
2022-11-06T00:20:41.669Z,51.259613
2022-11-06T00:21:41.677Z,51.259678
2022-11-06T00:22:41.650Z,51.259655
2022-11-06T00:23:41.644Z,51.259682
2022-11-06T00:24:41.660Z,51.259579
2022-11-06T00:25:41.614Z,51.259632
2022-11-06T00:26:41.618Z,51.259636
2022-11-06T00:27:41.589Z,51.259682
2022-11-06T00:28:41.587Z,51.259655
2022-11-06T00:29:41.585Z,51.259693
2022-11-06T00:30:41.560Z,51.259781
2022-11-06T00:31:41.574Z,51.259727
2022-11-06T00:32:41.545Z,51.259739
2022-11-06T00:33:41.535Z,51.259621
2022-11-06T00:34:41.526Z,51.259724
2022-11-06T00:35:41.555Z,51.259693
2022-11-06T00:36:41.530Z,51.259548
2022-11-06T00:37:41.492Z,51.259636
2022-11-06T00:38:41.493Z,51.259590
2022-11-06T00:39:41.473Z,51.259521
2022-11-06T00:40:41.469Z,51.259586
2022-11-06T00:41:41.475Z,51.259632
2022-11-06T00:42:41.439Z,51.259556
2022-11-06T00:43:41.449Z,51.259518
2022-11-06T00:44:41.421Z,51.259483
2022-11-06T00:45:41.420Z,51.259495
2022-11-06T00:46:41.430Z,51.259586
2022-11-06T00:47:41.398Z,51.259567
2022-11-06T00:48:41.387Z,51.259560
2022-11-06T00:49:41.380Z,51.259529
2022-11-06T00:50:41.367Z,51.259548
2022-11-06T00:51:41.382Z,51.259621
2022-11-06T00:52:41.346Z,51.259567
2022-11-06T00:53:41.334Z,51.259705
2022-11-06T00:54:41.326Z,51.259670
2022-11-06T00:55:41.320Z,51.259674
2022-11-06T00:56:41.340Z,51.259666
2022-11-06T00:57:41.293Z,51.259624
2022-11-06T00:58:41.279Z,51.259567
2022-11-06T00:59:41.284Z,51.259541
2022-11-06T01:00:41.291Z,51.259636
2022-11-06T01:01:41.457Z,51.259644
2022-11-06T01:02:41.443Z,51.259583
2022-11-06T01:03:42.230Z,51.259529
2022-11-06T01:04:41.238Z,51.259457
2022-11-06T01:05:41.222Z,51.259514
2022-11-06T01:06:41.233Z,51.259583
2022-11-06T01:07:41.196Z,51.259632
2022-11-06T01:08:41.197Z,51.259567
2022-11-06T01:09:41.180Z,51.259628
2022-11-06T01:10:41.179Z,51.259678
2022-11-06T01:12:10.983Z,51.259655
2022-11-06T01:12:43.151Z,51.259598
2022-11-06T01:13:41.145Z,51.259644
2022-11-06T01:14:41.135Z,51.259708
2022-11-06T01:15:41.115Z,51.259678
2022-11-06T01:16:41.130Z,51.259655
2022-11-06T01:17:41.101Z,51.259624
2022-11-06T01:18:41.095Z,51.259651
2022-11-06T01:19:41.068Z,51.259624
2022-11-06T01:20:41.064Z,51.259628
2022-11-06T01:21:41.075Z,51.259537
2022-11-06T01:22:41.043Z,51.259556
2022-11-06T01:23:41.037Z,51.259693
2022-11-06T01:24:41.096Z,51.259640
2022-11-06T01:25:41.014Z,51.259499
2022-11-06T01:26:53.472Z,51.259624
2022-11-06T01:27:43.005Z,51.259750
2022-11-06T01:28:40.989Z,51.259712
2022-11-06T01:29:40.978Z,51.259632
2022-11-06T01:30:40.966Z,51.259529
2022-11-06T01:31:40.963Z,51.259552
2022-11-06T01:32:40.944Z,51.259525
2022-11-06T01:33:40.925Z,51.259575
2022-11-06T01:34:40.927Z,51.259586
2022-11-06T01:35:40.983Z,51.259605
2022-11-06T01:36:40.911Z,51.259666
2022-11-06T01:37:40.884Z,51.259602
2022-11-06T01:38:40.870Z,51.259914
2022-11-06T01:39:40.866Z,51.259743
2022-11-06T01:40:40.855Z,51.259594
2022-11-06T01:41:40.872Z,51.259575
2022-11-06T01:42:40.824Z,51.259583
2022-11-06T01:43:40.818Z,51.259518
2022-11-06T01:44:40.819Z,51.259583
2022-11-06T01:45:40.798Z,51.259563
2022-11-06T01:46:40.803Z,51.259514
2022-11-06T01:47:40.776Z,51.259537
2022-11-06T01:48:40.762Z,51.259560
2022-11-06T01:49:40.756Z,51.259537
2022-11-06T01:50:40.732Z,51.259583
2022-11-06T01:51:40.750Z,51.259548
2022-11-06T01:52:40.724Z,51.259537
2022-11-06T01:53:40.753Z,51.259525
2022-11-06T01:54:40.702Z,51.259533
2022-11-06T01:55:40.690Z,51.259579
2022-11-06T01:56:40.763Z,51.259518
2022-11-06T01:57:40.673Z,51.259602
2022-11-06T01:58:40.653Z,51.259548
2022-11-06T01:59:40.651Z,51.259609
2022-11-06T02:00:40.636Z,51.259647
2022-11-06T02:01:40.682Z,51.259598
2022-11-06T02:02:40.758Z,51.259590
2022-11-06T02:03:40.594Z,51.259602
2022-11-06T02:04:40.595Z,51.259602
2022-11-06T02:05:40.581Z,51.259563
2022-11-06T02:06:40.570Z,51.259590
2022-11-06T02:07:40.643Z,51.259487
2022-11-06T02:08:41.553Z,51.259449
2022-11-06T02:09:40.537Z,51.259480
2022-11-06T02:10:40.526Z,51.259487
2022-11-06T02:11:40.513Z,51.259460
2022-11-06T02:12:40.532Z,51.259480
2022-11-06T02:13:40.500Z,51.259487
2022-11-06T02:14:40.480Z,51.259552
2022-11-06T02:15:40.490Z,51.259518
2022-11-06T02:16:40.461Z,51.259575
2022-11-06T02:17:40.468Z,51.259537
2022-11-06T02:18:40.440Z,51.259602
2022-11-06T02:19:40.424Z,51.259407
2022-11-06T02:20:40.420Z,51.259464
2022-11-06T02:21:40.404Z,51.259514
2022-11-06T02:22:40.413Z,51.259605
2022-11-06T02:23:40.387Z,51.259586
2022-11-06T02:24:40.378Z,51.259678
2022-11-06T02:25:40.362Z,51.259594
2022-11-06T02:26:40.351Z,51.259571
2022-11-06T02:27:40.365Z,51.259525
2022-11-06T02:28:40.331Z,51.259441
2022-11-06T02:29:40.318Z,51.259491
2022-11-06T02:30:40.297Z,51.259705
2022-11-06T02:31:40.295Z,51.259556
2022-11-06T02:32:40.330Z,51.259495
2022-11-06T02:33:40.278Z,51.259525
2022-11-06T02:34:40.257Z,51.259476
2022-11-06T02:35:40.257Z,51.259449
2022-11-06T02:36:40.239Z,51.259663
2022-11-06T02:37:40.252Z,51.259529
2022-11-06T02:38:40.209Z,51.259495
2022-11-06T02:39:40.202Z,51.259563
2022-11-06T02:40:40.204Z,51.259552
2022-11-06T02:41:40.188Z,51.259533
2022-11-06T02:42:40.176Z,51.259552
2022-11-06T02:43:40.153Z,51.259552
2022-11-06T02:44:40.150Z,51.259502
2022-11-06T02:45:40.139Z,51.259533
2022-11-06T02:46:40.130Z,51.259563
2022-11-06T02:47:40.147Z,51.259510
2022-11-06T02:48:40.110Z,51.259468
2022-11-06T02:49:40.102Z,51.259594
2022-11-06T02:50:40.093Z,51.259583
2022-11-06T02:51:40.079Z,51.259754
2022-11-06T02:52:40.088Z,51.259731
2022-11-06T02:53:40.054Z,51.259567
2022-11-06T02:54:40.043Z,51.259491
2022-11-06T02:55:40.029Z,51.259682
2022-11-06T02:56:40.023Z,51.259586
2022-11-06T02:57:40.029Z,51.259602
2022-11-06T02:58:43.519Z,51.259514
2022-11-06T02:59:40.984Z,51.259727
2022-11-06T03:00:39.976Z,51.259586
2022-11-06T03:01:40.021Z,51.259548
2022-11-06T03:02:40.126Z,51.259621
2022-11-06T03:03:39.943Z,51.259521
2022-11-06T03:04:39.942Z,51.259537
2022-11-06T03:05:39.932Z,51.259514
2022-11-06T03:06:39.914Z,51.259548
2022-11-06T03:07:39.921Z,51.259575
2022-11-06T03:08:39.888Z,51.259563
2022-11-06T03:09:39.879Z,51.259537
2022-11-06T03:10:39.860Z,51.259525
2022-11-06T03:11:39.853Z,51.259518
2022-11-06T03:12:39.861Z,51.259567
2022-11-06T03:13:39.830Z,51.259590
2022-11-06T03:14:39.823Z,51.259556
2022-11-06T03:15:39.813Z,51.259552
2022-11-06T03:16:39.808Z,51.259499
2022-11-06T03:17:39.811Z,51.259541
2022-11-06T03:18:39.778Z,51.259563
2022-11-06T03:19:39.769Z,51.259571
2022-11-06T03:20:39.758Z,51.259583
2022-11-06T03:21:39.755Z,51.259529
2022-11-06T03:22:39.745Z,51.259544
2022-11-06T03:23:39.719Z,51.259514
2022-11-06T03:24:39.717Z,51.259529
2022-11-06T03:25:39.706Z,51.259537
2022-11-06T03:26:39.697Z,51.259518
2022-11-06T03:27:39.718Z,51.259521
2022-11-06T03:28:39.671Z,51.259499
2022-11-06T03:29:39.662Z,51.259552
2022-11-06T03:30:39.642Z,51.259533
2022-11-06T03:31:39.635Z,51.259495
2022-11-06T03:32:39.651Z,51.259487
2022-11-06T03:33:39.776Z,51.259487
2022-11-06T03:34:39.609Z,51.259537
2022-11-06T03:35:39.596Z,51.259521
2022-11-06T03:36:39.590Z,51.259575
2022-11-06T03:37:39.599Z,51.259537
2022-11-06T03:38:42.240Z,51.259613
2022-11-06T03:39:39.554Z,51.259598
2022-11-06T03:40:39.538Z,51.259617
2022-11-06T03:41:39.525Z,51.259590
2022-11-06T03:42:39.535Z,51.259544
2022-11-06T03:43:39.506Z,51.259537
2022-11-06T03:44:39.489Z,51.259541
2022-11-06T03:45:39.487Z,51.259563
2022-11-06T03:46:39.474Z,51.259525
2022-11-06T03:47:39.521Z,51.259636
2022-11-06T03:48:39.440Z,51.259563
2022-11-06T03:49:39.446Z,51.259529
2022-11-06T03:50:39.427Z,51.259563
2022-11-06T03:51:39.419Z,51.259495
2022-11-06T03:52:40.272Z,51.259495
2022-11-06T03:53:39.396Z,51.259491
2022-11-06T03:54:39.381Z,51.259510
2022-11-06T03:55:39.372Z,51.259533
2022-11-06T03:56:39.360Z,51.259487
2022-11-06T03:57:39.367Z,51.259480
2022-11-06T03:58:39.385Z,51.259491
2022-11-06T03:59:39.458Z,51.259460
2022-11-06T04:00:39.368Z,51.259453
2022-11-06T04:01:39.408Z,51.259495
2022-11-06T04:02:39.426Z,51.259552
2022-11-06T04:03:39.282Z,51.259575
2022-11-06T04:04:39.275Z,51.259556
2022-11-06T04:05:39.269Z,51.259563
2022-11-06T04:06:39.255Z,51.259624
2022-11-06T04:07:39.262Z,51.259632
2022-11-06T04:08:39.238Z,51.259724
2022-11-06T04:09:39.224Z,51.259655
2022-11-06T04:10:39.218Z,51.259655
2022-11-06T04:11:39.200Z,51.259686
2022-11-06T04:12:39.205Z,51.259655
2022-11-06T04:13:39.174Z,51.259682
2022-11-06T04:14:39.159Z,51.259583
2022-11-06T04:15:39.151Z,51.259628
2022-11-06T04:16:39.153Z,51.259537
2022-11-06T04:17:39.149Z,51.259521
2022-11-06T04:18:39.111Z,51.259472
2022-11-06T04:19:39.109Z,51.259483
2022-11-06T04:20:39.094Z,51.259541
2022-11-06T04:21:39.132Z,51.259594
2022-11-06T04:22:39.092Z,51.259510
2022-11-06T04:23:39.060Z,51.259541
2022-11-06T04:24:39.096Z,51.259556
2022-11-06T04:25:39.057Z,51.259514
2022-11-06T04:26:39.039Z,51.259476
2022-11-06T04:27:39.038Z,51.259525
2022-11-06T04:28:39.006Z,51.259617
2022-11-06T04:29:38.998Z,51.259541
2022-11-06T04:30:38.995Z,51.259506
2022-11-06T04:31:38.980Z,51.259537
2022-11-06T04:32:38.987Z,51.259571
2022-11-06T04:33:39.010Z,51.259567
2022-11-06T04:34:38.929Z,51.259449
2022-11-06T04:35:38.941Z,51.259579
2022-11-06T04:36:38.924Z,51.259712
2022-11-06T04:37:38.925Z,51.259842
2022-11-06T04:38:38.906Z,51.259682
2022-11-06T04:39:38.894Z,51.259537
2022-11-06T04:40:38.915Z,51.259445
2022-11-06T04:41:38.879Z,51.259541
2022-11-06T04:42:38.894Z,51.259548
2022-11-06T04:43:38.869Z,51.259521
2022-11-06T04:44:39.840Z,51.259441
2022-11-06T04:45:38.843Z,51.259491
2022-11-06T04:46:38.823Z,51.259308
2022-11-06T04:47:38.833Z,51.259403
2022-11-06T04:48:38.794Z,51.259411
2022-11-06T04:49:38.777Z,51.259377
2022-11-06T04:50:38.775Z,51.259594
2022-11-06T04:51:38.770Z,51.259602
2022-11-06T04:52:38.830Z,51.259460
2022-11-06T04:53:38.752Z,51.259518
2022-11-06T04:54:38.729Z,51.259594
2022-11-06T04:55:38.718Z,51.259502
2022-11-06T04:56:42.999Z,51.259495
2022-11-06T04:57:39.711Z,51.259598
2022-11-06T04:58:38.688Z,51.259556
2022-11-06T04:59:38.680Z,51.259605
2022-11-06T05:00:38.718Z,51.259506
2022-11-06T05:01:38.827Z,51.259502
2022-11-06T05:02:38.652Z,51.259514
2022-11-06T05:03:38.752Z,51.259541
2022-11-06T05:04:38.621Z,51.259579
2022-11-06T05:05:38.604Z,51.259602
2022-11-06T05:06:38.606Z,51.259548
2022-11-06T05:07:40.575Z,51.259521
2022-11-06T05:09:10.473Z,51.259548
2022-11-06T05:09:38.568Z,51.259617
2022-11-06T05:10:38.555Z,51.259602
2022-11-06T05:11:38.540Z,51.259529
2022-11-06T05:12:38.543Z,51.259586
2022-11-06T05:13:38.515Z,51.259609
2022-11-06T05:14:38.502Z,51.259495
2022-11-06T05:15:38.501Z,51.259495
2022-11-06T05:16:38.479Z,51.259521
2022-11-06T05:17:38.491Z,51.259548
2022-11-06T05:18:38.468Z,51.259571
2022-11-06T05:19:38.449Z,51.259647
2022-11-06T05:20:38.452Z,51.259682
2022-11-06T05:21:38.433Z,51.259655
2022-11-06T05:22:38.443Z,51.259624
2022-11-06T05:23:38.413Z,51.259541
2022-11-06T05:24:38.405Z,51.259624
2022-11-06T05:25:38.390Z,51.259632
2022-11-06T05:26:38.377Z,51.259628
2022-11-06T05:27:38.395Z,51.259590
2022-11-06T05:28:38.344Z,51.259670
2022-11-06T05:29:38.342Z,51.259613
2022-11-06T05:30:38.336Z,51.259697
2022-11-06T05:31:38.318Z,51.259560
2022-11-06T05:32:38.313Z,51.259640
2022-11-06T05:33:38.301Z,51.259674
2022-11-06T05:34:38.296Z,51.259560
2022-11-06T05:35:38.276Z,51.259594
2022-11-06T05:36:38.263Z,51.259594
2022-11-06T05:37:38.285Z,51.259602
2022-11-06T05:38:38.252Z,51.259605
2022-11-06T05:39:41.801Z,51.259571
2022-11-06T05:40:39.250Z,51.259605
2022-11-06T05:41:38.222Z,51.259590
2022-11-06T05:42:38.224Z,51.259506
2022-11-06T05:43:38.205Z,51.259556
2022-11-06T05:44:38.181Z,51.259537
2022-11-06T05:45:38.180Z,51.259491
2022-11-06T05:46:53.573Z,51.259533
2022-11-06T05:47:40.174Z,51.259579
2022-11-06T05:48:38.182Z,51.259483
2022-11-06T05:49:38.129Z,51.259521
2022-11-06T05:50:38.124Z,51.259529
2022-11-06T05:51:38.109Z,51.259514
2022-11-06T05:52:38.111Z,51.259480
2022-11-06T05:53:38.094Z,51.259548
2022-11-06T05:54:38.076Z,51.259510
2022-11-06T05:55:38.064Z,51.259514
2022-11-06T05:56:38.074Z,51.259418
2022-11-06T05:57:38.065Z,51.259460
2022-11-06T05:58:38.034Z,51.259518
2022-11-06T05:59:38.025Z,51.259514
2022-11-06T06:00:38.007Z,51.259502
2022-11-06T06:01:38.144Z,51.259518
2022-11-06T06:02:38.179Z,51.259487
2022-11-06T06:03:37.986Z,51.259525
2022-11-06T06:04:37.966Z,51.259491
2022-11-06T06:05:37.982Z,51.259556
2022-11-06T06:06:37.947Z,51.259682
2022-11-06T06:07:37.953Z,51.259670
2022-11-06T06:08:37.917Z,51.259590
2022-11-06T06:09:37.915Z,51.259537
2022-11-06T06:10:37.908Z,51.259476
2022-11-06T06:11:37.895Z,51.259521
2022-11-06T06:12:37.902Z,51.259506
2022-11-06T06:13:37.875Z,51.259541
2022-11-06T06:14:37.872Z,51.259518
2022-11-06T06:15:37.856Z,51.259449
2022-11-06T06:16:37.839Z,51.259384
2022-11-06T06:17:37.852Z,51.259426
2022-11-06T06:18:37.834Z,51.259682
2022-11-06T06:19:37.819Z,51.259800
2022-11-06T06:20:37.799Z,51.259853
2022-11-06T06:21:38.821Z,51.259693
2022-11-06T06:22:37.798Z,51.259686
2022-11-06T06:23:37.787Z,51.259811
2022-11-06T06:24:37.818Z,51.259892
2022-11-06T06:25:37.747Z,51.259735
2022-11-06T06:26:37.742Z,51.259823
2022-11-06T06:27:37.739Z,51.259792
2022-11-06T06:28:38.718Z,51.259647
2022-11-06T06:29:37.700Z,51.259583
2022-11-06T06:30:37.695Z,51.259640
2022-11-06T06:31:37.703Z,51.259701
2022-11-06T06:32:37.693Z,51.259739
2022-11-06T06:33:37.665Z,51.259651
2022-11-06T06:34:37.655Z,51.259666
2022-11-06T06:35:37.642Z,51.259773
2022-11-06T06:36:37.627Z,51.259617
2022-11-06T06:37:37.634Z,51.259628
2022-11-06T06:38:37.602Z,51.259468
2022-11-06T06:39:37.593Z,51.259686
2022-11-06T06:40:37.585Z,51.259647
2022-11-06T06:41:37.572Z,51.259640
2022-11-06T06:42:37.582Z,51.259613
2022-11-06T06:43:37.557Z,51.259567
2022-11-06T06:44:37.550Z,51.259628
2022-11-06T06:45:37.531Z,51.259571
2022-11-06T06:46:37.520Z,51.259502
2022-11-06T06:47:37.524Z,51.259476
2022-11-06T06:48:37.496Z,51.259464
2022-11-06T06:49:37.486Z,51.259342
2022-11-06T06:50:37.470Z,51.259266
2022-11-06T06:51:38.471Z,51.259258
2022-11-06T06:52:37.476Z,51.259377
2022-11-06T06:53:37.438Z,51.259434
2022-11-06T06:54:37.434Z,51.259399
2022-11-06T06:55:37.412Z,51.259373
2022-11-06T06:56:38.414Z,51.259335
2022-11-06T06:57:37.453Z,51.259388
2022-11-06T06:58:37.386Z,51.259430
2022-11-06T06:59:37.381Z,51.259415
2022-11-06T07:00:37.408Z,51.259392
2022-11-06T07:01:37.451Z,51.259460
2022-11-06T07:02:37.363Z,51.259407
2022-11-06T07:03:37.337Z,51.259384
2022-11-06T07:04:37.320Z,51.259491
2022-11-06T07:05:37.309Z,51.259422
2022-11-06T07:06:37.304Z,51.259468
2022-11-06T07:07:37.314Z,51.259415
2022-11-06T07:08:37.300Z,51.259449
2022-11-06T07:09:37.269Z,51.259449
2022-11-06T07:10:37.259Z,51.259434
2022-11-06T07:11:37.260Z,51.259430
2022-11-06T07:12:37.260Z,51.259445
2022-11-06T07:13:37.228Z,51.259506
2022-11-06T07:14:37.229Z,51.259460
2022-11-06T07:15:37.211Z,51.259388
2022-11-06T07:16:37.197Z,51.259449
2022-11-06T07:17:37.196Z,51.259411
2022-11-06T07:18:37.183Z,51.259476
2022-11-06T07:19:37.169Z,51.259415
2022-11-06T07:20:37.158Z,51.259449
2022-11-06T07:21:37.136Z,51.259422
2022-11-06T07:22:37.867Z,51.259430
2022-11-06T07:23:38.149Z,51.259418
2022-11-06T07:24:37.113Z,51.259480
2022-11-06T07:25:37.108Z,51.259491
2022-11-06T07:26:37.096Z,51.259556
2022-11-06T07:27:37.103Z,51.259491
2022-11-06T07:28:37.076Z,51.259312
2022-11-06T07:29:37.069Z,51.259514
2022-11-06T07:30:37.057Z,51.259514
2022-11-06T07:31:37.053Z,51.259537
2022-11-06T07:32:37.064Z,51.259422
2022-11-06T07:33:37.025Z,51.259396
2022-11-06T07:34:37.014Z,51.259392
2022-11-06T07:35:37.012Z,51.259502
2022-11-06T07:36:37.008Z,51.259602
2022-11-06T07:37:36.998Z,51.259544
2022-11-06T07:38:36.982Z,51.259499
2022-11-06T07:39:36.968Z,51.259510
2022-11-06T07:40:36.978Z,51.259457
2022-11-06T07:41:36.946Z,51.259483
2022-11-06T07:42:42.238Z,51.259483
2022-11-06T07:43:38.934Z,51.259472
2022-11-06T07:44:36.916Z,51.259369
2022-11-06T07:45:36.914Z,51.259575
2022-11-06T07:46:36.898Z,51.259495
2022-11-06T07:47:36.903Z,51.259521
2022-11-06T07:48:36.880Z,51.259449
2022-11-06T07:49:36.860Z,51.259472
2022-11-06T07:50:36.856Z,51.259468
2022-11-06T07:51:36.853Z,51.259457
2022-11-06T07:52:36.851Z,51.259319
2022-11-06T07:53:36.828Z,51.259521
2022-11-06T07:54:36.817Z,51.259567
2022-11-06T07:55:41.994Z,51.259548
2022-11-06T07:56:38.800Z,51.259529
2022-11-06T07:57:36.814Z,51.259476
2022-11-06T07:58:36.768Z,51.259472
2022-11-06T07:59:36.768Z,51.259499
2022-11-06T08:00:36.783Z,51.259502
2022-11-06T08:01:36.819Z,51.259468
2022-11-06T08:02:36.773Z,51.259537
2022-11-06T08:03:36.733Z,51.259571
2022-11-06T08:04:36.718Z,51.259544
2022-11-06T08:05:36.699Z,51.259556
2022-11-06T08:06:36.689Z,51.259693
2022-11-06T08:07:36.709Z,51.259590
2022-11-06T08:08:36.676Z,51.259674
2022-11-06T08:09:36.665Z,51.259560
2022-11-06T08:10:36.659Z,51.259598
2022-11-06T08:11:36.648Z,51.259563
2022-11-06T08:12:36.639Z,51.259586
2022-11-06T08:13:36.642Z,51.259674
2022-11-06T08:14:41.248Z,51.259571
2022-11-06T08:15:38.692Z,51.259644
2022-11-06T08:16:36.596Z,51.259567
2022-11-06T08:17:36.587Z,51.259552
2022-11-06T08:18:36.603Z,51.259579
2022-11-06T08:19:36.569Z,51.259518
2022-11-06T08:20:36.555Z,51.259590
2022-11-06T08:21:36.550Z,51.259613
2022-11-06T08:22:36.549Z,51.259624
2022-11-06T08:23:36.552Z,51.259605
2022-11-06T08:24:36.523Z,51.259586
2022-11-06T08:25:36.506Z,51.259495
2022-11-06T08:26:36.504Z,51.259483
2022-11-06T08:27:36.492Z,51.259552
2022-11-06T08:28:36.502Z,51.259590
2022-11-06T08:29:41.131Z,51.259537
2022-11-06T08:30:38.462Z,51.259552
2022-11-06T08:31:36.449Z,51.259521
2022-11-06T08:32:36.438Z,51.259510
2022-11-06T08:33:36.452Z,51.259411
2022-11-06T08:34:36.423Z,51.259529
2022-11-06T08:35:36.416Z,51.259560
2022-11-06T08:36:36.399Z,51.259548
2022-11-06T08:37:36.392Z,51.259575
2022-11-06T08:38:36.401Z,51.259579
2022-11-06T08:39:36.375Z,51.259624
2022-11-06T08:40:36.369Z,51.259590
2022-11-06T08:41:36.383Z,51.259579
2022-11-06T08:42:36.346Z,51.259571
2022-11-06T08:43:36.354Z,51.259556
2022-11-06T08:44:36.320Z,51.259571
2022-11-06T08:45:36.350Z,51.259560
2022-11-06T08:46:36.308Z,51.259552
2022-11-06T08:47:36.304Z,51.259552
2022-11-06T08:48:36.301Z,51.259525
2022-11-06T08:49:36.273Z,51.259533
2022-11-06T08:50:36.270Z,51.259537
2022-11-06T08:51:36.257Z,51.259609
2022-11-06T08:52:36.243Z,51.259598
2022-11-06T08:53:36.344Z,51.259575
2022-11-06T08:54:36.218Z,51.259575
2022-11-06T08:55:36.215Z,51.259586
2022-11-06T08:56:36.206Z,51.259575
2022-11-06T08:57:36.193Z,51.259548
2022-11-06T08:58:36.198Z,51.259529
2022-11-06T08:59:36.172Z,51.259567
2022-11-06T09:00:36.162Z,51.259575
2022-11-06T09:01:36.267Z,51.259575
2022-11-06T09:02:36.211Z,51.259647
2022-11-06T09:03:36.149Z,51.259560
2022-11-06T09:04:40.978Z,51.259567
2022-11-06T09:05:37.115Z,51.259567
2022-11-06T09:06:36.109Z,51.259609
2022-11-06T09:07:36.097Z,51.259609
2022-11-06T09:08:36.103Z,51.259560
2022-11-06T09:09:36.076Z,51.259605
2022-11-06T09:10:36.067Z,51.259666
2022-11-06T09:11:36.058Z,51.259743
2022-11-06T09:12:36.048Z,51.259739
2022-11-06T09:13:36.058Z,51.259640
2022-11-06T09:14:36.030Z,51.259563
2022-11-06T09:15:36.025Z,51.259464
2022-11-06T09:16:36.008Z,51.259548
2022-11-06T09:17:35.993Z,51.259537
2022-11-06T09:18:36.009Z,51.259480
2022-11-06T09:19:35.984Z,51.259548
2022-11-06T09:20:35.975Z,51.259586
2022-11-06T09:21:35.961Z,51.259510
2022-11-06T09:22:35.950Z,51.259617
2022-11-06T09:23:35.964Z,51.259525
2022-11-06T09:25:01.446Z,51.259655
2022-11-06T09:25:37.923Z,51.259735
2022-11-06T09:26:35.917Z,51.259686
2022-11-06T09:27:35.908Z,51.259521
2022-11-06T09:28:35.903Z,51.259586
2022-11-06T09:29:35.884Z,51.259594
2022-11-06T09:30:35.873Z,51.259617
2022-11-06T09:31:35.863Z,51.259594
2022-11-06T09:32:35.882Z,51.259567
2022-11-06T09:33:35.851Z,51.259636
2022-11-06T09:34:35.830Z,51.259624
2022-11-06T09:35:35.828Z,51.259609
2022-11-06T09:36:35.818Z,51.259583
2022-11-06T09:37:35.813Z,51.259617
2022-11-06T09:38:35.802Z,51.259590
2022-11-06T09:39:35.785Z,51.259621
2022-11-06T09:40:35.774Z,51.259655
2022-11-06T09:41:35.761Z,51.259640
2022-11-06T09:42:35.754Z,51.259548
2022-11-06T09:44:04.476Z,51.259552
2022-11-06T09:44:37.735Z,51.259621
2022-11-06T09:45:35.720Z,51.259640
2022-11-06T09:46:35.714Z,51.259640
2022-11-06T09:47:35.701Z,51.259632
2022-11-06T09:48:35.716Z,51.259686
2022-11-06T09:49:35.679Z,51.259766
2022-11-06T09:50:35.667Z,51.259769
2022-11-06T09:51:35.671Z,51.259827
2022-11-06T09:52:35.656Z,51.259697
2022-11-06T09:53:35.653Z,51.259602
2022-11-06T09:54:35.639Z,51.259666
2022-11-06T09:55:35.617Z,51.259701
2022-11-06T09:56:35.612Z,51.259716
2022-11-06T09:57:35.609Z,51.259716
2022-11-06T09:58:35.606Z,51.259937
2022-11-06T09:59:35.584Z,51.259800
2022-11-06T10:00:35.566Z,51.259743
2022-11-06T10:01:35.715Z,51.259613
2022-11-06T10:02:35.583Z,51.259480
2022-11-06T10:03:35.569Z,51.259594
2022-11-06T10:04:35.537Z,51.259789
2022-11-06T10:05:35.523Z,51.259777
2022-11-06T10:06:35.515Z,51.259644
2022-11-06T10:07:35.591Z,51.259621
2022-11-06T10:08:35.507Z,51.259575
2022-11-06T10:09:35.489Z,51.259506
2022-11-06T10:10:35.484Z,51.259506
2022-11-06T10:11:35.469Z,51.259552
2022-11-06T10:12:35.464Z,51.259563
2022-11-06T10:13:35.478Z,51.259617
2022-11-06T10:14:35.447Z,51.259628
2022-11-06T10:15:35.433Z,51.259483
2022-11-06T10:16:35.418Z,51.259518
2022-11-06T10:17:35.411Z,51.259491
2022-11-06T10:18:35.438Z,51.259521
2022-11-06T10:19:35.399Z,51.259350
2022-11-06T10:20:35.375Z,51.259434
2022-11-06T10:21:35.376Z,51.259506
2022-11-06T10:22:35.367Z,51.259499
2022-11-06T10:23:35.374Z,51.259491
2022-11-06T10:24:35.348Z,51.259495
2022-11-06T10:25:35.334Z,51.259495
2022-11-06T10:26:35.328Z,51.259483
2022-11-06T10:27:35.311Z,51.259533
2022-11-06T10:28:35.318Z,51.259533
2022-11-06T10:29:35.298Z,51.259521
2022-11-06T10:30:35.296Z,51.259499
2022-11-06T10:31:35.302Z,51.259510
2022-11-06T10:32:35.277Z,51.259533
2022-11-06T10:33:35.297Z,51.259510
2022-11-06T10:34:35.293Z,51.259480
2022-11-06T10:35:35.251Z,51.259491
2022-11-06T10:36:35.257Z,51.259460
2022-11-06T10:37:35.223Z,51.259544
2022-11-06T10:38:35.246Z,51.259583
2022-11-06T10:39:35.202Z,51.259579
2022-11-06T10:40:35.194Z,51.259510
2022-11-06T10:41:35.194Z,51.259499
2022-11-06T10:42:37.979Z,51.259472
2022-11-06T10:43:36.174Z,51.259556
2022-11-06T10:44:35.144Z,51.259506
2022-11-06T10:45:35.137Z,51.259586
2022-11-06T10:46:35.117Z,51.259514
2022-11-06T10:47:35.110Z,51.259476
2022-11-06T10:48:40.941Z,51.259495
2022-11-06T10:49:37.081Z,51.259354
2022-11-06T10:50:35.080Z,51.259472
2022-11-06T10:51:35.068Z,51.259514
2022-11-06T10:52:35.051Z,51.259506
2022-11-06T10:53:35.073Z,51.259525
2022-11-06T10:54:35.043Z,51.259533
2022-11-06T10:55:35.034Z,51.259415
2022-11-06T10:56:35.024Z,51.259499
2022-11-06T10:57:35.013Z,51.259544
2022-11-06T10:58:35.019Z,51.259556
2022-11-06T10:59:34.997Z,51.259453
2022-11-06T11:00:35.983Z,51.259426
2022-11-06T11:01:35.096Z,51.259521
2022-11-06T11:02:35.028Z,51.259495
2022-11-06T11:03:34.991Z,51.259541
2022-11-06T11:04:34.940Z,51.259430
2022-11-06T11:05:34.921Z,51.259472
2022-11-06T11:06:34.919Z,51.259480
2022-11-06T11:07:34.914Z,51.259441
2022-11-06T11:09:08.588Z,51.259480
2022-11-06T11:09:34.892Z,51.259567
2022-11-06T11:10:34.931Z,51.259518
2022-11-06T11:11:34.878Z,51.259537
2022-11-06T11:12:34.855Z,51.259605
2022-11-06T11:13:34.855Z,51.259605
2022-11-06T11:14:34.852Z,51.259533
2022-11-06T11:15:34.829Z,51.259510
2022-11-06T11:16:34.820Z,51.259548
2022-11-06T11:17:34.818Z,51.259434
2022-11-06T11:18:34.818Z,51.259499
2022-11-06T11:19:34.813Z,51.259514
2022-11-06T11:20:34.788Z,51.259533
2022-11-06T11:21:34.766Z,51.259499
2022-11-06T11:22:34.763Z,51.259521
2022-11-06T11:23:34.806Z,51.259521
2022-11-06T11:24:34.763Z,51.259533